sensor_id;sensor_type;location;lat;lon;timestamp;pressure;altitude;pressure_sealevel;temperature;humidity
71907;BME280;59781;52.090;5.030;2022-12-07T00:09:23;101794.78;;;4.99;100.00
71907;BME280;59781;52.090;5.030;2022-12-07T00:11:51;101792.88;;;4.88;100.00
71907;BME280;59781;52.090;5.030;2022-12-07T00:14:18;101791.34;;;4.73;100.00
71907;BME280;59781;52.090;5.030;2022-12-07T00:16:51;101801.16;;;4.59;100.00
71907;BME280;59781;52.090;5.030;2022-12-07T00:20:15;101793.41;;;4.44;100.00
71907;BME280;59781;52.090;5.030;2022-12-07T00:22:41;101794.03;;;4.47;100.00
71907;BME280;59781;52.090;5.030;2022-12-07T00:25:07;101785.16;;;4.59;100.00
71907;BME280;59781;52.090;5.030;2022-12-07T00:27:33;101783.59;;;4.44;100.00
71907;BME280;59781;52.090;5.030;2022-12-07T00:30:02;101785.72;;;4.39;100.00
71907;BME280;59781;52.090;5.030;2022-12-07T00:32:28;101783.50;;;4.33;100.00
71907;BME280;59781;52.090;5.030;2022-12-07T00:34:54;101781.47;;;4.24;100.00
71907;BME280;59781;52.090;5.030;2022-12-07T00:37:20;101782.72;;;4.31;100.00
71907;BME280;59781;52.090;5.030;2022-12-07T00:39:46;101775.59;;;4.19;100.00
71907;BME280;59781;52.090;5.030;2022-12-07T00:42:12;101782.84;;;4.29;100.00
71907;BME280;59781;52.090;5.030;2022-12-07T00:44:39;101778.91;;;4.10;100.00
71907;BME280;59781;52.090;5.030;2022-12-07T00:47:05;101784.53;;;3.92;100.00
71907;BME280;59781;52.090;5.030;2022-12-07T00:49:31;101789.78;;;3.94;100.00
71907;BME280;59781;52.090;5.030;2022-12-07T00:52:19;101790.75;;;4.06;100.00
71907;BME280;59781;52.090;5.030;2022-12-07T00:55:00;101787.13;;;4.19;100.00
71907;BME280;59781;52.090;5.030;2022-12-07T00:57:26;101787.75;;;4.36;100.00
71907;BME280;59781;52.090;5.030;2022-12-07T00:59:58;101775.09;;;4.14;100.00
71907;BME280;59781;52.090;5.030;2022-12-07T01:02:33;101767.16;;;4.38;100.00
71907;BME280;59781;52.090;5.030;2022-12-07T01:05:02;101771.56;;;4.26;100.00
71907;BME280;59781;52.090;5.030;2022-12-07T01:07:28;101761.09;;;4.23;100.00
71907;BME280;59781;52.090;5.030;2022-12-07T01:09:54;101765.03;;;4.17;100.00
71907;BME280;59781;52.090;5.030;2022-12-07T01:12:20;101766.75;;;4.06;100.00
71907;BME280;59781;52.090;5.030;2022-12-07T01:26:02;101774.19;;;4.00;100.00
71907;BME280;59781;52.090;5.030;2022-12-07T01:29:21;101771.88;;;3.96;100.00
71907;BME280;59781;52.090;5.030;2022-12-07T01:32:27;101768.13;;;4.11;100.00
71907;BME280;59781;52.090;5.030;2022-12-07T01:42:32;101768.59;;;4.67;98.24
71907;BME280;59781;52.090;5.030;2022-12-07T01:45:56;101770.69;;;4.13;99.34
71907;BME280;59781;52.090;5.030;2022-12-07T01:49:25;101771.97;;;3.94;99.69
71907;BME280;59781;52.090;5.030;2022-12-07T01:54:32;101789.69;;;3.95;99.07
71907;BME280;59781;52.090;5.030;2022-12-07T02:02:04;101795.31;;;4.29;100.00
71907;BME280;59781;52.090;5.030;2022-12-07T02:09:47;101781.22;;;4.65;100.00
71907;BME280;59781;52.090;5.030;2022-12-07T02:12:51;101773.13;;;4.54;100.00
71907;BME280;59781;52.090;5.030;2022-12-07T02:15:27;101760.22;;;4.48;100.00
71907;BME280;59781;52.090;5.030;2022-12-07T02:29:23;101752.09;;;4.49;100.00
71907;BME280;59781;52.090;5.030;2022-12-07T02:39:08;101745.13;;;4.23;100.00
71907;BME280;59781;52.090;5.030;2022-12-07T02:42:40;101760.78;;;4.27;100.00
71907;BME280;59781;52.090;5.030;2022-12-07T02:45:29;101754.16;;;4.20;100.00
71907;BME280;59781;52.090;5.030;2022-12-07T02:48:28;101749.69;;;4.21;99.30
71907;BME280;59781;52.090;5.030;2022-12-07T02:50:55;101743.63;;;4.06;100.00
71907;BME280;59781;52.090;5.030;2022-12-07T02:53:41;101744.16;;;3.86;100.00
71907;BME280;59781;52.090;5.030;2022-12-07T03:07:50;101749.53;;;3.59;100.00
71907;BME280;59781;52.090;5.030;2022-12-07T03:17:05;101741.22;;;3.51;99.94
71907;BME280;59781;52.090;5.030;2022-12-07T03:19:50;101748.31;;;3.25;100.00
71907;BME280;59781;52.090;5.030;2022-12-07T03:22:47;101741.41;;;3.35;100.00
71907;BME280;59781;52.090;5.030;2022-12-07T03:26:41;101739.16;;;3.02;100.00
71907;BME280;59781;52.090;5.030;2022-12-07T03:30:20;101729.59;;;2.85;100.00
71907;BME280;59781;52.090;5.030;2022-12-07T03:33:14;101736.59;;;3.00;100.00
71907;BME280;59781;52.090;5.030;2022-12-07T03:35:57;101750.69;;;2.88;100.00
71907;BME280;59781;52.090;5.030;2022-12-07T03:38:46;101738.47;;;2.71;100.00
71907;BME280;59781;52.090;5.030;2022-12-07T03:42:29;101742.09;;;2.70;100.00
71907;BME280;59781;52.090;5.030;2022-12-07T03:53:04;101734.50;;;3.45;100.00
71907;BME280;59781;52.090;5.030;2022-12-07T03:56:25;101733.47;;;3.21;99.75
71907;BME280;59781;52.090;5.030;2022-12-07T03:59:37;101733.97;;;3.13;100.00
71907;BME280;59781;52.090;5.030;2022-12-07T04:02:56;101732.22;;;3.26;98.64
71907;BME280;59781;52.090;5.030;2022-12-07T04:05:23;101730.88;;;3.06;99.32
71907;BME280;59781;52.090;5.030;2022-12-07T04:08:46;101741.53;;;3.06;100.00
71907;BME280;59781;52.090;5.030;2022-12-07T04:12:04;101745.56;;;2.85;100.00
71907;BME280;59781;52.090;5.030;2022-12-07T04:14:52;101741.63;;;3.05;100.00
71907;BME280;59781;52.090;5.030;2022-12-07T04:18:24;101729.97;;;3.33;100.00
71907;BME280;59781;52.090;5.030;2022-12-07T04:21:41;101724.25;;;3.39;99.83
71907;BME280;59781;52.090;5.030;2022-12-07T04:24:07;101721.91;;;3.34;100.00
71907;BME280;59781;52.090;5.030;2022-12-07T04:27:05;101724.19;;;3.13;99.85
71907;BME280;59781;52.090;5.030;2022-12-07T04:29:31;101719.38;;;3.06;100.00
71907;BME280;59781;52.090;5.030;2022-12-07T04:31:56;101724.84;;;2.90;100.00
71907;BME280;59781;52.090;5.030;2022-12-07T04:34:54;101719.28;;;2.80;100.00
71907;BME280;59781;52.090;5.030;2022-12-07T04:41:38;101726.47;;;2.23;100.00
71907;BME280;59781;52.090;5.030;2022-12-07T04:44:37;101721.47;;;2.18;100.00
71907;BME280;59781;52.090;5.030;2022-12-07T04:51:03;101720.03;;;2.13;100.00
71907;BME280;59781;52.090;5.030;2022-12-07T04:53:50;101712.81;;;2.15;100.00
71907;BME280;59781;52.090;5.030;2022-12-07T04:57:13;101712.72;;;2.16;100.00
71907;BME280;59781;52.090;5.030;2022-12-07T05:00:31;101712.25;;;2.10;100.00
71907;BME280;59781;52.090;5.030;2022-12-07T05:03:31;101713.22;;;2.09;100.00
71907;BME280;59781;52.090;5.030;2022-12-07T05:05:57;101704.50;;;2.07;100.00
71907;BME280;59781;52.090;5.030;2022-12-07T05:08:22;101708.06;;;2.06;100.00
71907;BME280;59781;52.090;5.030;2022-12-07T05:11:12;101701.88;;;2.34;100.00
71907;BME280;59781;52.090;5.030;2022-12-07T05:18:28;101716.13;;;2.33;100.00
71907;BME280;59781;52.090;5.030;2022-12-07T05:20:54;101718.13;;;2.29;100.00
71907;BME280;59781;52.090;5.030;2022-12-07T05:24:16;101711.53;;;2.63;100.00
71907;BME280;59781;52.090;5.030;2022-12-07T05:27:02;101713.16;;;2.51;100.00
71907;BME280;59781;52.090;5.030;2022-12-07T05:33:23;101717.25;;;2.57;100.00
71907;BME280;59781;52.090;5.030;2022-12-07T05:36:09;101717.19;;;2.85;100.00
71907;BME280;59781;52.090;5.030;2022-12-07T05:38:34;101712.28;;;2.92;100.00
71907;BME280;59781;52.090;5.030;2022-12-07T05:41:04;101707.63;;;2.96;100.00
71907;BME280;59781;52.090;5.030;2022-12-07T05:48:23;101710.72;;;3.02;100.00
71907;BME280;59781;52.090;5.030;2022-12-07T05:55:35;101707.03;;;3.44;100.00
71907;BME280;59781;52.090;5.030;2022-12-07T05:58:00;101704.59;;;3.92;100.00
71907;BME280;59781;52.090;5.030;2022-12-07T06:07:45;101701.06;;;4.17;97.80
71907;BME280;59781;52.090;5.030;2022-12-07T06:14:08;101705.34;;;3.69;99.78
71907;BME280;59781;52.090;5.030;2022-12-07T06:17:14;101705.13;;;3.59;99.62
71907;BME280;59781;52.090;5.030;2022-12-07T06:23:40;101710.56;;;3.83;100.00
71907;BME280;59781;52.090;5.030;2022-12-07T06:30:27;101704.91;;;4.00;100.00
71907;BME280;59781;52.090;5.030;2022-12-07T06:32:53;101702.47;;;4.23;98.42
71907;BME280;59781;52.090;5.030;2022-12-07T06:39:41;101705.56;;;4.04;98.55
71907;BME280;59781;52.090;5.030;2022-12-07T06:42:07;101705.34;;;4.07;97.86
71907;BME280;59781;52.090;5.030;2022-12-07T06:48:27;101703.72;;;3.92;97.54
71907;BME280;59781;52.090;5.030;2022-12-07T06:51:25;101708.22;;;3.79;97.86
71907;BME280;59781;52.090;5.030;2022-12-07T07:02:20;101718.88;;;3.66;100.00
71907;BME280;59781;52.090;5.030;2022-12-07T07:16:37;101708.44;;;3.88;98.22
71907;BME280;59781;52.090;5.030;2022-12-07T07:19:16;101708.44;;;3.76;97.58
71907;BME280;59781;52.090;5.030;2022-12-07T07:29:35;101707.81;;;3.20;99.02
71907;BME280;59781;52.090;5.030;2022-12-07T07:32:04;101703.59;;;3.42;99.59
71907;BME280;59781;52.090;5.030;2022-12-07T07:34:33;101709.00;;;3.28;98.28
71907;BME280;59781;52.090;5.030;2022-12-07T07:37:00;101709.00;;;3.28;98.72
71907;BME280;59781;52.090;5.030;2022-12-07T07:39:26;101706.75;;;3.22;99.15
71907;BME280;59781;52.090;5.030;2022-12-07T07:53:35;101709.53;;;3.33;98.42
71907;BME280;59781;52.090;5.030;2022-12-07T07:56:01;101709.94;;;3.67;99.08
71907;BME280;59781;52.090;5.030;2022-12-07T07:58:51;101715.56;;;3.62;98.54
71907;BME280;59781;52.090;5.030;2022-12-07T08:02:15;101705.63;;;3.52;98.30
71907;BME280;59781;52.090;5.030;2022-12-07T08:05:33;101710.16;;;3.24;97.84
71907;BME280;59781;52.090;5.030;2022-12-07T08:07:59;101720.72;;;3.26;98.43
71907;BME280;59781;52.090;5.030;2022-12-07T08:14:37;101711.56;;;3.42;98.44
71907;BME280;59781;52.090;5.030;2022-12-07T08:17:54;101701.03;;;3.41;98.07
71907;BME280;59781;52.090;5.030;2022-12-07T09:15:22;101711.03;;;6.39;92.68
71907;BME280;59781;52.090;5.030;2022-12-07T09:18:37;101713.56;;;6.18;91.71
71907;BME280;59781;52.090;5.030;2022-12-07T09:21:26;101713.63;;;6.83;88.75
71907;BME280;59781;52.090;5.030;2022-12-07T09:25:09;101714.38;;;7.17;85.95
71907;BME280;59781;52.090;5.030;2022-12-07T09:36:06;101742.03;;;5.61;94.67
71907;BME280;59781;52.090;5.030;2022-12-07T09:46:41;101721.63;;;5.25;95.53
71907;BME280;59781;52.090;5.030;2022-12-07T10:09:26;101711.25;;;6.47;93.47
71907;BME280;59781;52.090;5.030;2022-12-07T10:12:25;101701.75;;;6.65;92.77
71907;BME280;59781;52.090;5.030;2022-12-07T10:30:22;101672.66;;;7.78;85.56
71907;BME280;59781;52.090;5.030;2022-12-07T10:32:54;101675.03;;;8.01;83.83
71907;BME280;59781;52.090;5.030;2022-12-07T10:39:23;101674.31;;;7.48;88.85
71907;BME280;59781;52.090;5.030;2022-12-07T10:43:25;101679.31;;;6.88;90.90
71907;BME280;59781;52.090;5.030;2022-12-07T10:45:58;101676.00;;;6.53;92.39
71907;BME280;59781;52.090;5.030;2022-12-07T11:15:29;101663.91;;;6.70;93.13
71907;BME280;59781;52.090;5.030;2022-12-07T11:31:20;101640.34;;;7.37;90.12
71907;BME280;59781;52.090;5.030;2022-12-07T11:38:16;101626.22;;;7.56;89.81
71907;BME280;59781;52.090;5.030;2022-12-07T11:45:27;101616.00;;;7.19;89.01
71907;BME280;59781;52.090;5.030;2022-12-07T11:48:38;101615.38;;;6.95;91.18
71907;BME280;59781;52.090;5.030;2022-12-07T11:56:11;101603.81;;;7.36;87.43
71907;BME280;59781;52.090;5.030;2022-12-07T12:07:06;101594.91;;;6.73;91.47
71907;BME280;59781;52.090;5.030;2022-12-07T12:26:31;101582.88;;;7.00;88.98
71907;BME280;59781;52.090;5.030;2022-12-07T12:44:40;101557.28;;;6.75;88.81
71907;BME280;59781;52.090;5.030;2022-12-07T12:51:36;101561.06;;;6.51;88.25
71907;BME280;59781;52.090;5.030;2022-12-07T12:57:37;101550.75;;;6.36;86.15
71907;BME280;59781;52.090;5.030;2022-12-07T13:00:19;101548.38;;;6.53;86.85
71907;BME280;59781;52.090;5.030;2022-12-07T13:02:54;101538.13;;;6.70;86.83
71907;BME280;59781;52.090;5.030;2022-12-07T13:05:30;101538.34;;;6.67;86.47
71907;BME280;59781;52.090;5.030;2022-12-07T13:08:47;101538.69;;;6.73;87.17
71907;BME280;59781;52.090;5.030;2022-12-07T13:11:32;101532.94;;;6.78;86.16
71907;BME280;59781;52.090;5.030;2022-12-07T13:18:04;101526.03;;;6.96;85.77
71907;BME280;59781;52.090;5.030;2022-12-07T13:28:50;101558.56;;;7.12;83.53
71907;BME280;59781;52.090;5.030;2022-12-07T13:36:58;101550.22;;;5.87;92.46
71907;BME280;59781;52.090;5.030;2022-12-07T13:43:02;101546.34;;;5.69;93.11
71907;BME280;59781;52.090;5.030;2022-12-07T13:45:58;101528.38;;;5.48;94.84
71907;BME280;59781;52.090;5.030;2022-12-07T13:56:33;101501.28;;;5.64;95.07
71907;BME280;59781;52.090;5.030;2022-12-07T13:59:05;101492.66;;;5.83;93.55
71907;BME280;59781;52.090;5.030;2022-12-07T14:04:45;101490.59;;;6.30;92.05
71907;BME280;59781;52.090;5.030;2022-12-07T14:07:26;101488.16;;;6.27;93.55
71907;BME280;59781;52.090;5.030;2022-12-07T14:10:05;101490.44;;;5.99;95.37
71907;BME280;59781;52.090;5.030;2022-12-07T14:12:48;101484.75;;;5.93;96.55
71907;BME280;59781;52.090;5.030;2022-12-07T14:15:23;101490.22;;;6.35;92.35
71907;BME280;59781;52.090;5.030;2022-12-07T14:17:55;101482.28;;;6.12;91.57
71907;BME280;59781;52.090;5.030;2022-12-07T14:22:58;101465.94;;;6.47;89.67
71907;BME280;59781;52.090;5.030;2022-12-07T14:25:27;101469.03;;;6.11;91.35
71907;BME280;59781;52.090;5.030;2022-12-07T14:27:57;101464.56;;;6.00;92.03
71907;BME280;59781;52.090;5.030;2022-12-07T14:30:29;101464.31;;;6.56;89.33
71907;BME280;59781;52.090;5.030;2022-12-07T14:33:02;101461.97;;;6.42;88.88
71907;BME280;59781;52.090;5.030;2022-12-07T14:35:52;101458.69;;;6.06;90.49
71907;BME280;59781;52.090;5.030;2022-12-07T14:38:31;101462.97;;;6.61;87.40
71907;BME280;59781;52.090;5.030;2022-12-07T14:40:58;101461.56;;;6.67;87.00
71907;BME280;59781;52.090;5.030;2022-12-07T14:43:46;101456.59;;;6.21;90.52
71907;BME280;59781;52.090;5.030;2022-12-07T14:46:12;101454.47;;;6.03;90.93
71907;BME280;59781;52.090;5.030;2022-12-07T14:48:40;101458.56;;;6.08;90.85
71907;BME280;59781;52.090;5.030;2022-12-07T14:51:14;101452.09;;;6.21;89.50
71907;BME280;59781;52.090;5.030;2022-12-07T14:53:50;101455.22;;;5.94;91.30
71907;BME280;59781;52.090;5.030;2022-12-07T14:56:18;101458.75;;;5.84;91.34
71907;BME280;59781;52.090;5.030;2022-12-07T14:58:50;101458.69;;;5.52;93.54
71907;BME280;59781;52.090;5.030;2022-12-07T15:01:16;101457.00;;;5.51;94.74
71907;BME280;59781;52.090;5.030;2022-12-07T15:03:59;101454.31;;;5.62;94.86
71907;BME280;59781;52.090;5.030;2022-12-07T15:06:40;101456.66;;;5.87;92.32
71907;BME280;59781;52.090;5.030;2022-12-07T15:09:10;101457.63;;;5.86;92.88
71907;BME280;59781;52.090;5.030;2022-12-07T15:12:03;101448.44;;;5.68;94.03
71907;BME280;59781;52.090;5.030;2022-12-07T15:14:29;101448.63;;;5.87;90.99
71907;BME280;59781;52.090;5.030;2022-12-07T15:16:56;101450.09;;;5.14;95.57
71907;BME280;59781;52.090;5.030;2022-12-07T15:19:23;101448.72;;;5.54;94.34
71907;BME280;59781;52.090;5.030;2022-12-07T15:22:05;101443.59;;;5.73;94.93
71907;BME280;59781;52.090;5.030;2022-12-07T15:24:34;101442.13;;;5.69;93.16
71907;BME280;59781;52.090;5.030;2022-12-07T15:27:01;101463.06;;;5.53;94.67
71907;BME280;59781;52.090;5.030;2022-12-07T15:29:26;101471.44;;;5.37;95.69
71907;BME280;59781;52.090;5.030;2022-12-07T15:32:14;101440.75;;;5.31;94.60
71907;BME280;59781;52.090;5.030;2022-12-07T15:35:22;101435.03;;;5.25;94.87
71907;BME280;59781;52.090;5.030;2022-12-07T15:41:53;101440.38;;;5.13;94.68
71907;BME280;59781;52.090;5.030;2022-12-07T15:44:19;101440.63;;;5.22;95.65
71907;BME280;59781;52.090;5.030;2022-12-07T15:47:10;101432.50;;;5.23;96.64
71907;BME280;59781;52.090;5.030;2022-12-07T15:49:37;101438.16;;;5.30;96.45
71907;BME280;59781;52.090;5.030;2022-12-07T15:52:03;101427.03;;;5.25;95.94
71907;BME280;59781;52.090;5.030;2022-12-07T15:57:54;101427.78;;;5.70;93.60
71907;BME280;59781;52.090;5.030;2022-12-07T16:00:21;101427.84;;;5.47;94.13
71907;BME280;59781;52.090;5.030;2022-12-07T16:02:49;101419.69;;;5.49;95.46
71907;BME280;59781;52.090;5.030;2022-12-07T16:05:16;101406.59;;;5.46;93.40
71907;BME280;59781;52.090;5.030;2022-12-07T16:07:43;101406.13;;;5.30;94.96
71907;BME280;59781;52.090;5.030;2022-12-07T16:10:12;101407.91;;;5.40;95.98
71907;BME280;59781;52.090;5.030;2022-12-07T16:12:38;101397.66;;;5.25;94.85
71907;BME280;59781;52.090;5.030;2022-12-07T16:15:06;101392.78;;;5.30;95.50
71907;BME280;59781;52.090;5.030;2022-12-07T16:17:33;101398.31;;;5.49;94.54
71907;BME280;59781;52.090;5.030;2022-12-07T16:20:16;101392.66;;;5.31;94.68
71907;BME280;59781;52.090;5.030;2022-12-07T16:22:45;101389.81;;;5.55;93.66
71907;BME280;59781;52.090;5.030;2022-12-07T16:25:35;101390.22;;;5.51;93.97
71907;BME280;59781;52.090;5.030;2022-12-07T16:28:07;101393.41;;;5.22;94.51
71907;BME280;59781;52.090;5.030;2022-12-07T16:30:34;101396.44;;;5.06;95.32
71907;BME280;59781;52.090;5.030;2022-12-07T16:33:09;101395.22;;;5.22;94.51
71907;BME280;59781;52.090;5.030;2022-12-07T16:35:38;101390.50;;;5.14;94.85
71907;BME280;59781;52.090;5.030;2022-12-07T16:38:07;101393.28;;;4.90;94.65
71907;BME280;59781;52.090;5.030;2022-12-07T16:40:48;101394.75;;;4.94;95.42
71907;BME280;59781;52.090;5.030;2022-12-07T16:43:20;101386.63;;;4.96;93.05
71907;BME280;59781;52.090;5.030;2022-12-07T16:46:05;101378.78;;;5.48;91.32
71907;BME280;59781;52.090;5.030;2022-12-07T16:48:35;101378.59;;;5.18;91.83
71907;BME280;59781;52.090;5.030;2022-12-07T16:51:05;101372.34;;;5.40;89.44
71907;BME280;59781;52.090;5.030;2022-12-07T16:54:23;101386.00;;;5.03;91.85
71907;BME280;59781;52.090;5.030;2022-12-07T17:00:51;101370.97;;;5.13;92.34
71907;BME280;59781;52.090;5.030;2022-12-07T17:16:00;101361.50;;;4.98;92.07
71907;BME280;59781;52.090;5.030;2022-12-07T17:19:18;101355.44;;;4.96;91.45
71907;BME280;59781;52.090;5.030;2022-12-07T17:25:38;101354.97;;;5.02;90.74
71907;BME280;59781;52.090;5.030;2022-12-07T17:28:05;101342.19;;;5.06;91.31
71907;BME280;59781;52.090;5.030;2022-12-07T17:31:11;101338.56;;;4.62;93.56
71907;BME280;59781;52.090;5.030;2022-12-07T17:38:19;101336.59;;;5.09;92.35
71907;BME280;59781;52.090;5.030;2022-12-07T17:41:14;101334.34;;;5.47;91.60
71907;BME280;59781;52.090;5.030;2022-12-07T17:44:34;101354.81;;;4.81;94.78
71907;BME280;59781;52.090;5.030;2022-12-07T17:46:59;101349.59;;;4.80;95.57
71907;BME280;59781;52.090;5.030;2022-12-07T17:49:48;101341.13;;;4.75;95.79
71907;BME280;59781;52.090;5.030;2022-12-07T17:53:05;101348.03;;;4.77;96.15
71907;BME280;59781;52.090;5.030;2022-12-07T17:56:03;101344.41;;;4.67;96.07
71907;BME280;59781;52.090;5.030;2022-12-07T17:58:29;101344.53;;;4.54;97.01
71907;BME280;59781;52.090;5.030;2022-12-07T18:04:48;101333.38;;;4.83;95.11
71907;BME280;59781;52.090;5.030;2022-12-07T18:08:41;101329.22;;;4.90;96.85
71907;BME280;59781;52.090;5.030;2022-12-07T18:12:16;101335.41;;;4.79;97.57
71907;BME280;59781;52.090;5.030;2022-12-07T18:15:06;101329.09;;;4.80;98.09
71907;BME280;59781;52.090;5.030;2022-12-07T18:18:28;101325.22;;;4.96;96.16
71907;BME280;59781;52.090;5.030;2022-12-07T18:21:56;101322.41;;;5.08;96.23
71907;BME280;59781;52.090;5.030;2022-12-07T18:24:23;101325.94;;;5.09;96.78
71907;BME280;59781;52.090;5.030;2022-12-07T18:26:49;101322.56;;;4.96;96.97
71907;BME280;59781;52.090;5.030;2022-12-07T18:33:09;101327.78;;;4.97;98.38
71907;BME280;59781;52.090;5.030;2022-12-07T18:39:34;101318.41;;;4.92;99.35
71907;BME280;59781;52.090;5.030;2022-12-07T18:42:28;101314.88;;;5.25;98.14
71907;BME280;59781;52.090;5.030;2022-12-07T18:48:53;101307.47;;;5.17;98.15
71907;BME280;59781;52.090;5.030;2022-12-07T18:51:22;101309.78;;;5.22;98.60
71907;BME280;59781;52.090;5.030;2022-12-07T18:57:44;101305.13;;;5.67;95.38
71907;BME280;59781;52.090;5.030;2022-12-07T19:00:32;101310.41;;;5.78;94.02
71907;BME280;59781;52.090;5.030;2022-12-07T19:11:29;101306.38;;;5.19;97.78
71907;BME280;59781;52.090;5.030;2022-12-07T19:15:18;101297.38;;;5.64;95.95
71907;BME280;59781;52.090;5.030;2022-12-07T19:33:45;101284.88;;;5.32;100.00
71907;BME280;59781;52.090;5.030;2022-12-07T19:36:11;101290.75;;;5.15;97.22
71907;BME280;59781;52.090;5.030;2022-12-07T19:38:56;101292.91;;;5.21;97.29
71907;BME280;59781;52.090;5.030;2022-12-07T19:45:27;101284.03;;;5.21;98.61
71907;BME280;59781;52.090;5.030;2022-12-07T19:52:02;101271.78;;;5.18;98.12
71907;BME280;59781;52.090;5.030;2022-12-07T19:58:29;101271.38;;;4.79;100.00
71907;BME280;59781;52.090;5.030;2022-12-07T20:04:56;101255.50;;;4.78;99.98
71907;BME280;59781;52.090;5.030;2022-12-07T20:15:17;101237.84;;;5.09;96.08
71907;BME280;59781;52.090;5.030;2022-12-07T20:33:26;101224.66;;;4.96;96.55
71907;BME280;59781;52.090;5.030;2022-12-07T20:39:38;101223.41;;;5.00;97.90
71907;BME280;59781;52.090;5.030;2022-12-07T20:42:24;101212.91;;;4.87;96.89
71907;BME280;59781;52.090;5.030;2022-12-07T20:51:57;101210.63;;;4.83;98.85
71907;BME280;59781;52.090;5.030;2022-12-07T20:58:31;101206.34;;;4.92;97.76
71907;BME280;59781;52.090;5.030;2022-12-07T21:05:54;101205.34;;;5.04;95.39
71907;BME280;59781;52.090;5.030;2022-12-07T21:08:55;101204.06;;;4.87;96.57
71907;BME280;59781;52.090;5.030;2022-12-07T21:12:11;101199.94;;;4.83;97.49
71907;BME280;59781;52.090;5.030;2022-12-07T21:15:16;101198.53;;;4.68;98.73
71907;BME280;59781;52.090;5.030;2022-12-07T21:25:35;101198.78;;;4.31;100.00
71907;BME280;59781;52.090;5.030;2022-12-07T21:28:01;101197.53;;;4.69;98.84
71907;BME280;59781;52.090;5.030;2022-12-07T21:30:27;101183.75;;;4.64;97.73
71907;BME280;59781;52.090;5.030;2022-12-07T21:33:01;101181.59;;;4.35;99.23
71907;BME280;59781;52.090;5.030;2022-12-07T21:39:16;101175.53;;;4.87;96.17
71907;BME280;59781;52.090;5.030;2022-12-07T21:42:10;101165.38;;;4.81;94.83
71907;BME280;59781;52.090;5.030;2022-12-07T21:44:36;101170.88;;;4.69;95.42
71907;BME280;59781;52.090;5.030;2022-12-07T21:47:03;101167.09;;;4.71;95.80
71907;BME280;59781;52.090;5.030;2022-12-07T21:49:33;101171.66;;;4.37;96.12
71907;BME280;59781;52.090;5.030;2022-12-07T21:52:01;101175.31;;;4.25;97.62
71907;BME280;59781;52.090;5.030;2022-12-07T21:54:31;101165.50;;;4.14;99.08
71907;BME280;59781;52.090;5.030;2022-12-07T21:57:06;101166.19;;;4.93;95.30
71907;BME280;59781;52.090;5.030;2022-12-07T21:59:35;101167.97;;;4.60;95.74
71907;BME280;59781;52.090;5.030;2022-12-07T22:02:01;101150.88;;;4.63;96.65
71907;BME280;59781;52.090;5.030;2022-12-07T22:04:29;101161.72;;;4.94;94.57
71907;BME280;59781;52.090;5.030;2022-12-07T22:06:55;101145.56;;;4.63;95.06
71907;BME280;59781;52.090;5.030;2022-12-07T22:09:22;101143.69;;;4.75;95.49
71907;BME280;59781;52.090;5.030;2022-12-07T22:11:48;101145.41;;;4.65;95.26
71907;BME280;59781;52.090;5.030;2022-12-07T22:14:14;101134.84;;;5.06;93.83
71907;BME280;59781;52.090;5.030;2022-12-07T22:16:59;101147.25;;;4.64;96.05
71907;BME280;59781;52.090;5.030;2022-12-07T22:19:25;101142.78;;;4.53;98.40
71907;BME280;59781;52.090;5.030;2022-12-07T22:22:51;101144.97;;;4.48;97.63
71907;BME280;59781;52.090;5.030;2022-12-07T22:25:25;101144.06;;;4.70;99.20
71907;BME280;59781;52.090;5.030;2022-12-07T22:28:10;101138.88;;;4.57;99.40
71907;BME280;59781;52.090;5.030;2022-12-07T22:38:10;101129.28;;;4.98;96.42
71907;BME280;59781;52.090;5.030;2022-12-07T22:47:31;101121.75;;;4.71;98.46
71907;BME280;59781;52.090;5.030;2022-12-07T22:49:58;101123.78;;;4.79;98.33
71907;BME280;59781;52.090;5.030;2022-12-07T22:52:26;101112.09;;;4.59;99.52
71907;BME280;59781;52.090;5.030;2022-12-07T22:55:10;101117.41;;;4.59;99.68
71907;BME280;59781;52.090;5.030;2022-12-07T22:57:36;101103.69;;;4.75;98.24
71907;BME280;59781;52.090;5.030;2022-12-07T23:00:03;101098.38;;;4.96;97.31
71907;BME280;59781;52.090;5.030;2022-12-07T23:02:36;101107.38;;;4.63;98.23
71907;BME280;59781;52.090;5.030;2022-12-07T23:05:03;101101.88;;;4.96;98.52
71907;BME280;59781;52.090;5.030;2022-12-07T23:07:33;101095.28;;;4.79;97.71
71907;BME280;59781;52.090;5.030;2022-12-07T23:10:04;101102.88;;;4.63;98.33
71907;BME280;59781;52.090;5.030;2022-12-07T23:16:27;101096.34;;;5.09;96.31
71907;BME280;59781;52.090;5.030;2022-12-07T23:19:34;101078.28;;;5.12;95.30
71907;BME280;59781;52.090;5.030;2022-12-07T23:22:01;101080.06;;;4.91;97.31
71907;BME280;59781;52.090;5.030;2022-12-07T23:24:28;101071.31;;;4.68;97.23
71907;BME280;59781;52.090;5.030;2022-12-07T23:26:57;101073.22;;;4.77;96.94
71907;BME280;59781;52.090;5.030;2022-12-07T23:29:48;101069.44;;;4.80;96.41
71907;BME280;59781;52.090;5.030;2022-12-07T23:32:14;101071.13;;;4.81;97.80
71907;BME280;59781;52.090;5.030;2022-12-07T23:34:42;101072.38;;;4.98;96.58
71907;BME280;59781;52.090;5.030;2022-12-07T23:37:09;101068.66;;;4.89;96.30
71907;BME280;59781;52.090;5.030;2022-12-07T23:39:35;101064.19;;;5.10;96.79
71907;BME280;59781;52.090;5.030;2022-12-07T23:42:03;101068.03;;;4.97;95.99
71907;BME280;59781;52.090;5.030;2022-12-07T23:44:29;101065.81;;;5.23;93.70
71907;BME280;59781;52.090;5.030;2022-12-07T23:46:55;101068.94;;;5.07;94.83
71907;BME280;59781;52.090;5.030;2022-12-07T23:49:21;101066.09;;;4.67;96.49
71907;BME280;59781;52.090;5.030;2022-12-07T23:51:47;101063.59;;;4.86;96.97
71907;BME280;59781;52.090;5.030;2022-12-07T23:54:13;101068.72;;;5.40;94.16
71907;BME280;59781;52.090;5.030;2022-12-07T23:59:48;101050.19;;;5.18;94.48
